Time;durP1;ratioP1;P1;durP2;ratioP2;P2;SDS_P1;SDS_P2;PMS_P1;PMS_P2;Temp;Humidity;BMP_temperature;BMP_pressure;BME280_temperature;BME280_humidity;BME280_pressure;Samples;Min_cycle;Max_cycle;Signal;HPM_P1;HPM_P2
2022/08/29 00:02:23;;;;;;;15.90;10.98;;;14.70;99.90;;;;;;5051207;28;20056;-81
2022/08/29 00:05:13;;;;;;;18.75;10.88;;;14.60;99.90;;;;;;5046460;28;20130;-82
2022/08/29 00:08:01;;;;;;;16.48;11.30;;;14.70;99.90;;;;;;5053343;28;20041;-81
2022/08/29 00:10:48;;;;;;;14.77;11.57;;;14.80;99.90;;;;;;5049751;28;20055;-81
2022/08/29 00:13:35;;;;;;;14.27;10.98;;;14.80;99.90;;;;;;5057456;28;20057;-81
2022/08/29 00:16:26;;;;;;;18.60;12.63;;;14.80;99.90;;;;;;5059599;28;20060;-81
2022/08/29 00:19:16;;;;;;;14.98;11.35;;;14.80;99.90;;;;;;5052051;28;20041;-81
2022/08/29 00:22:05;;;;;;;13.20;9.93;;;14.80;99.90;;;;;;5057811;28;20045;-81
2022/08/29 00:24:52;;;;;;;13.68;10.68;;;14.70;99.90;;;;;;5056340;28;20040;-81
2022/08/29 00:27:43;;;;;;;12.60;10.15;;;14.60;99.90;;;;;;5052474;28;20049;-81
2022/08/29 00:30:38;;;;;;;16.42;11.32;;;14.60;99.90;;;;;;5058014;28;20068;-81
2022/08/29 00:33:28;;;;;;;15.30;11.07;;;14.50;99.90;;;;;;5049137;28;20051;-82
2022/08/29 00:36:19;;;;;;;19.30;12.70;;;14.40;99.90;;;;;;5053090;28;20056;-81
2022/08/29 00:39:10;;;;;;;20.85;17.33;;;14.30;99.90;;;;;;5069938;28;20089;-81
2022/08/29 00:41:57;;;;;;;18.45;15.32;;;14.20;99.90;;;;;;5072676;28;20052;-82
2022/08/29 00:44:51;;;;;;;18.20;14.52;;;14.20;99.90;;;;;;5095914;28;20044;-81
2022/08/29 00:47:41;;;;;;;;;;;14.30;99.90;;;;;;5059580;28;20082;-82
2022/08/29 00:50:37;;;;;;;18.40;14.23;;;14.40;99.90;;;;;;5069133;28;19927;-81
2022/08/29 00:53:43;;;;;;;19.65;15.32;;;14.50;99.90;;;;;;5062579;28;20041;-80
2022/08/29 00:56:32;;;;;;;18.40;14.93;;;14.50;99.90;;;;;;5038733;28;20357;-80
2022/08/29 00:59:23;;;;;;;20.88;14.75;;;14.40;99.90;;;;;;5059251;28;20087;-80
2022/08/29 01:02:13;;;;;;;16.35;14.05;;;14.30;99.90;;;;;;5050864;28;20033;-79
2022/08/29 01:05:02;;;;;;;19.65;15.15;;;14.20;99.90;;;;;;5056930;28;20082;-81
2022/08/29 01:07:50;;;;;;;21.42;14.00;;;14.10;1.00;;;;;;5062683;28;20051;-80
2022/08/29 01:13:48;;;;;;;17.73;14.02;;;13.90;1.00;;;;;;5065721;28;20055;-80
2022/08/29 01:16:38;;;;;;;18.92;14.63;;;13.80;1.00;;;;;;5058728;28;20085;-80
2022/08/29 01:19:53;;;;;;;19.75;14.80;;;13.70;1.00;;;;;;5052057;28;20040;-80
2022/08/29 01:23:01;;;;;;;21.05;14.20;;;13.70;1.00;;;;;;5054564;28;20052;-79
2022/08/29 01:25:50;;;;;;;19.77;14.07;;;13.50;45.30;;;;;;5056828;28;20066;-79
2022/08/29 01:28:50;;;;;;;20.23;14.77;;;13.50;99.90;;;;;;5044451;28;20041;-80
2022/08/29 01:31:45;;;;;;;21.42;13.95;;;13.50;99.90;;;;;;5057303;28;20454;-80
2022/08/29 01:34:44;;;;;;;18.83;14.02;;;13.60;99.90;;;;;;5059011;28;20040;-80
2022/08/29 01:37:33;;;;;;;18.00;14.07;;;13.50;99.90;;;;;;5045899;28;20056;-80
2022/08/29 01:40:26;;;;;;;18.73;13.98;;;13.40;99.90;;;;;;5055784;28;20059;-80
2022/08/29 01:43:13;;;;;;;17.88;13.65;;;13.40;99.90;;;;;;5072276;28;20486;-80
2022/08/29 01:46:01;;;;;;;17.55;12.68;;;13.30;99.90;;;;;;5050370;28;20041;-80
2022/08/29 01:48:51;;;;;;;18.83;12.82;;;13.20;99.90;;;;;;5053902;28;20051;-80
2022/08/29 01:51:40;;;;;;;20.92;13.98;;;13.20;99.90;;;;;;5051765;28;20044;-80
2022/08/29 01:54:28;;;;;;;16.15;13.10;;;13.30;1.00;;;;;;5047463;28;20359;-79
2022/08/29 01:57:21;;;;;;;18.52;12.35;;;13.30;1.00;;;;;;5048446;28;20064;-79
2022/08/29 02:00:10;;;;;;;23.90;12.40;;;13.30;1.00;;;;;;5057266;28;20043;-79
2022/08/29 02:02:59;;;;;;;18.23;11.93;;;13.20;1.00;;;;;;5048056;28;20051;-79
2022/08/29 02:05:47;;;;;;;15.38;11.27;;;13.10;99.90;;;;;;5048813;28;20041;-79
2022/08/29 02:08:39;;;;;;;14.95;11.45;;;13.10;99.90;;;;;;5049109;28;20036;-79
2022/08/29 02:11:26;;;;;;;17.58;13.18;;;13.10;99.90;;;;;;5051889;28;20048;-79
2022/08/29 02:14:14;;;;;;;19.95;12.77;;;13.10;99.90;;;;;;5049832;28;20040;-80
2022/08/29 02:17:06;;;;;;;21.92;15.90;;;13.10;99.90;;;;;;5058634;28;20088;-80
2022/08/29 02:20:04;;;;;;;23.23;18.58;;;13.20;99.90;;;;;;5052042;28;20044;-80
2022/08/29 02:22:58;;;;;;;27.60;18.50;;;13.30;1.00;;;;;;5055018;28;20356;-81
2022/08/29 02:25:46;;;;;;;20.23;16.75;;;13.30;1.00;;;;;;5059273;28;20047;-80
2022/08/29 02:28:37;;;;;;;23.63;15.88;;;13.30;1.00;;;;;;5059930;28;20060;-81
2022/08/29 02:31:27;;;;;;;20.50;16.98;;;13.10;1.00;;;;;;5058458;28;20452;-81
2022/08/29 02:34:16;;;;;;;20.73;16.27;;;13.10;1.00;;;;;;5054492;28;20041;-80
2022/08/29 02:37:04;;;;;;;21.58;16.40;;;13.00;1.00;;;;;;5057364;28;20048;-81
2022/08/29 02:39:52;;;;;;;24.05;16.02;;;13.00;1.00;;;;;;5036809;28;20121;-81
2022/08/29 02:42:42;;;;;;;25.02;15.27;;;13.00;1.00;;;;;;5047422;28;20052;-81
2022/08/29 02:45:29;;;;;;;23.05;17.13;;;12.90;1.00;;;;;;5058673;28;20041;-81
2022/08/29 02:48:20;;;;;;;20.27;15.27;;;12.80;1.00;;;;;;5057159;28;20077;-81
2022/08/29 02:51:07;;;;;;;22.48;15.20;;;12.70;1.00;;;;;;5063874;28;20044;-81
2022/08/29 02:53:55;;;;;;;22.23;15.52;;;12.70;1.00;;;;;;5048896;28;20352;-81
2022/08/29 02:56:42;;;;;;;21.67;15.18;;;12.70;45.70;;;;;;5047116;28;20340;-81
2022/08/29 02:59:29;;;;;;;20.67;14.88;;;12.70;93.40;;;;;;5060972;28;20057;-81
2022/08/29 03:02:17;;;;;;;28.67;14.65;;;12.70;99.90;;;;;;5057215;28;20448;-81
2022/08/29 03:05:05;;;;;;;22.35;15.00;;;12.70;99.90;;;;;;5055367;28;20060;-81
2022/08/29 03:07:54;;;;;;;18.58;14.55;;;12.80;99.90;;;;;;5061702;28;20044;-81
2022/08/29 03:10:42;;;;;;;20.35;15.13;;;12.80;99.90;;;;;;5056714;28;20059;-81
2022/08/29 03:13:30;;;;;;;22.70;14.40;;;12.80;99.90;;;;;;5048557;28;20056;-81
2022/08/29 03:16:19;;;;;;;23.38;13.57;;;12.80;99.90;;;;;;5060075;28;20139;-81
2022/08/29 03:19:09;;;;;;;22.13;14.43;;;12.80;99.90;;;;;;5052168;28;20127;-81
2022/08/29 03:21:56;;;;;;;21.30;14.00;;;12.70;99.90;;;;;;5059490;28;20464;-81
2022/08/29 03:24:43;;;;;;;21.92;14.57;;;12.60;99.90;;;;;;5055304;28;20056;-81
2022/08/29 03:27:34;;;;;;;24.75;15.82;;;12.70;99.90;;;;;;5060652;28;20045;-81
2022/08/29 03:30:21;;;;;;;22.33;16.45;;;12.80;99.90;;;;;;5056799;28;20048;-80
2022/08/29 03:33:10;;;;;;;23.63;15.55;;;12.90;99.90;;;;;;5055465;28;20079;-81
2022/08/29 03:35:58;;;;;;;23.05;16.27;;;12.80;99.90;;;;;;5058571;28;20036;-81
2022/08/29 03:38:47;;;;;;;25.52;16.95;;;12.70;99.90;;;;;;5058779;28;20052;-81
2022/08/29 03:41:35;;;;;;;26.08;17.48;;;12.80;99.90;;;;;;5056842;28;20049;-81
2022/08/29 03:44:23;;;;;;;23.67;16.80;;;12.80;99.90;;;;;;5047138;28;20049;-81
2022/08/29 03:47:17;;;;;;;26.33;17.30;;;12.80;99.90;;;;;;5060180;28;20056;-81
2022/08/29 03:50:05;;;;;;;24.88;16.60;;;12.70;99.90;;;;;;5054796;28;20041;-81
2022/08/29 03:52:58;;;;;;;25.27;16.63;;;12.70;99.90;;;;;;5055723;28;20060;-82
2022/08/29 03:55:48;;;;;;;26.83;17.92;;;12.60;99.90;;;;;;5059925;28;20064;-81
2022/08/29 03:58:36;;;;;;;27.75;18.02;;;12.50;99.90;;;;;;5054691;28;20041;-81
2022/08/29 04:01:43;;;;;;;24.77;18.35;;;12.50;99.90;;;;;;5053872;28;20594;-81
2022/08/29 04:07:43;;;;;;;31.48;19.20;;;12.50;99.90;;;;;;5069742;28;20313;-80
2022/08/29 04:10:34;;;;;;;27.42;20.10;;;12.40;99.90;;;;;;5052551;28;20467;-80
2022/08/29 04:13:21;;;;;;;25.05;18.52;;;12.30;1.00;;;;;;5042475;28;20037;-80
2022/08/29 04:16:16;;;;;;;23.75;17.67;;;12.30;1.00;;;;;;5048250;28;20380;-80
2022/08/29 04:19:04;;;;;;;30.63;20.58;;;12.30;1.00;;;;;;5056207;28;20056;-81
2022/08/29 04:21:58;;;;;;;34.47;21.83;;;12.30;1.00;;;;;;5046531;28;20094;-82
2022/08/29 04:24:46;;;;;;;32.70;21.83;;;12.40;97.60;;;;;;5051040;28;20559;-80
2022/08/29 04:27:35;;;;;;;29.35;20.85;;;12.40;99.90;;;;;;5051634;28;20842;-80
2022/08/29 04:30:24;;;;;;;29.27;21.02;;;12.40;99.90;;;;;;5054939;28;20048;-81
2022/08/29 04:33:11;;;;;;;29.75;21.05;;;12.40;99.90;;;;;;5046128;28;20048;-81
2022/08/29 04:36:08;;;;;;;30.80;20.90;;;12.40;99.90;;;;;;5055749;28;20048;-80
2022/08/29 04:39:01;;;;;;;32.20;22.30;;;12.40;99.90;;;;;;5054702;28;20119;-79
2022/08/29 04:41:48;;;;;;;27.48;20.80;;;12.30;99.90;;;;;;5047492;28;20041;-80
2022/08/29 04:44:37;;;;;;;27.83;21.10;;;12.30;99.90;;;;;;5039676;28;20061;-80
2022/08/29 04:47:24;;;;;;;29.33;19.67;;;12.30;99.90;;;;;;5072527;28;20768;-80
2022/08/29 04:50:17;;;;;;;30.17;20.30;;;12.20;99.90;;;;;;5048183;28;20061;-80
2022/08/29 04:53:04;;;;;;;37.60;21.92;;;12.10;99.90;;;;;;5054082;28;20041;-81
2022/08/29 04:56:00;;;;;;;34.25;19.60;;;12.30;99.90;;;;;;5047852;28;20052;-81
2022/08/29 04:58:50;;;;;;;33.33;21.80;;;12.40;99.90;;;;;;5070517;28;20044;-80
2022/08/29 05:01:38;;;;;;;30.92;21.85;;;12.40;99.90;;;;;;5041152;28;20048;-80
2022/08/29 05:04:28;;;;;;;31.58;21.50;;;12.40;99.90;;;;;;5045688;28;20048;-80
2022/08/29 05:07:15;;;;;;;31.10;20.50;;;12.30;99.90;;;;;;5051864;28;20186;-80
2022/08/29 05:10:12;;;;;;;28.73;20.83;;;12.30;99.90;;;;;;5048266;28;20056;-79
2022/08/29 05:12:59;;;;;;;30.75;20.77;;;12.30;99.90;;;;;;5062237;28;20044;-81
2022/08/29 05:15:47;;;;;;;30.10;21.35;;;12.30;99.90;;;;;;5051636;28;20048;-80
2022/08/29 05:18:35;;;;;;;33.40;21.67;;;12.40;1.00;;;;;;5052573;28;20054;-81
2022/08/29 05:21:38;;;;;;;32.90;20.80;;;12.50;1.00;;;;;;5044302;28;20454;-80
2022/08/29 05:24:26;;;;;;;30.65;21.73;;;12.60;40.20;;;;;;5050938;28;20065;-81
2022/08/29 05:27:19;;;;;;;29.23;21.95;;;12.80;99.90;;;;;;5047549;28;20056;-81
2022/08/29 05:30:07;;;;;;;35.38;22.58;;;12.80;99.90;;;;;;5043128;28;20053;-79
2022/08/29 05:32:55;;;;;;;34.88;22.65;;;12.90;99.90;;;;;;5044110;28;20141;-80
2022/08/29 05:35:43;;;;;;;33.92;22.48;;;13.00;99.90;;;;;;5047703;28;20340;-80
2022/08/29 05:38:31;;;;;;;32.03;21.80;;;13.10;99.90;;;;;;5047407;28;20045;-81
2022/08/29 05:41:18;;;;;;;34.75;22.45;;;13.20;49.80;;;;;;5032865;28;20041;-79
2022/08/29 05:44:08;;;;;;;31.00;19.92;;;13.30;1.00;;;;;;5053058;28;20049;-81
2022/08/29 05:49:30;;;;;;;23.25;17.83;;;13.40;99.90;;;;;;5927008;22;20076;-84
2022/08/29 05:52:28;;;;;;;26.33;17.63;;;13.40;99.90;;;;;;5019132;28;20046;-86
2022/08/29 05:55:18;;;;;;;25.77;16.17;;;13.60;1.00;;;;;;4996285;28;20062;-86
2022/08/29 05:58:07;;;;;;;22.85;15.75;;;13.60;99.90;;;;;;5020627;28;20053;-85
2022/08/29 06:00:57;;;;;;;23.30;15.95;;;13.70;99.90;;;;;;5030445;28;20249;-86
2022/08/29 06:03:49;;;;;;;24.00;16.30;;;13.70;1.00;;;;;;5024494;28;20049;-86
2022/08/29 06:06:40;;;;;;;21.45;15.60;;;13.80;99.90;;;;;;5013539;28;20129;-86
2022/08/29 06:09:27;;;;;;;19.92;15.00;;;14.10;99.90;;;;;;5012751;28;20046;-86
2022/08/29 06:12:16;;;;;;;21.02;15.23;;;14.20;16.30;;;;;;5013896;28;20041;-86
2022/08/29 06:15:06;;;;;;;23.40;14.57;;;14.20;1.00;;;;;;5034931;28;20120;-85
2022/08/29 06:18:01;;;;;;;;;;;14.30;99.90;;;;;;5025723;28;20131;-88
2022/08/29 06:20:53;;;;;;;20.35;15.63;;;14.50;99.90;;;;;;5038951;28;19975;-90
2022/08/29 06:23:49;;;;;;;22.02;15.68;;;14.60;99.90;;;;;;5033964;28;20774;-86
2022/08/29 06:27:01;;;;;;;24.08;17.58;;;14.80;99.90;;;;;;5024972;28;20143;-87
2022/08/29 06:29:56;;;;;;;29.60;20.52;;;15.00;99.90;;;;;;5020012;28;20048;-84
2022/08/29 06:32:47;;;;;;;23.90;18.58;;;15.30;99.90;;;;;;5017063;28;20423;-85
2022/08/29 06:35:42;;;;;;;29.02;18.67;;;15.50;99.90;;;;;;5022053;28;20177;-85
2022/08/29 06:38:32;;;;;;;25.40;16.75;;;15.70;99.90;;;;;;5006413;28;20360;-86
2022/08/29 06:41:20;;;;;;;22.58;16.20;;;15.90;99.90;;;;;;5033194;28;20061;-84
2022/08/29 06:44:10;;;;;;;19.52;13.35;;;16.10;99.90;;;;;;5019300;28;20073;-88
2022/08/29 06:46:58;;;;;;;20.15;14.63;;;16.40;92.90;;;;;;5015527;28;20037;-85
2022/08/29 06:49:52;;;;;;;18.90;12.90;;;16.70;16.70;;;;;;5019308;28;20548;-84
2022/08/29 06:52:42;;;;;;;19.92;15.05;;;17.00;1.00;;;;;;5032205;28;20050;-85
2022/08/29 06:55:39;;;;;;;24.73;16.38;;;17.20;1.00;;;;;;5016156;28;20054;-85
2022/08/29 06:58:43;;;;;;;23.42;15.70;;;17.20;1.00;;;;;;5028013;28;20041;-86
2022/08/29 07:01:37;;;;;;;23.25;16.35;;;17.20;1.00;;;;;;5027324;28;20052;-88
2022/08/29 07:04:42;;;;;;;18.45;13.70;;;17.50;1.00;;;;;;5023576;28;20056;-88
2022/08/29 07:07:43;;;;;;;23.23;13.68;;;17.70;1.00;;;;;;5019856;28;20139;-89
2022/08/29 07:10:31;;;;;;;15.50;12.73;;;18.20;99.90;;;;;;5019282;28;20128;-89
2022/08/29 07:13:33;;;;;;;;;;;;;;;;;;;;;
2022/08/29 07:16:30;;;;;;;15.88;12.02;;;18.80;99.90;;;;;;5031588;28;20498;-90
2022/08/29 07:19:26;;;;;;;13.38;10.75;;;19.00;99.90;;;;;;5013240;28;20349;-91
2022/08/29 07:22:58;;;;;;;15.18;11.27;;;19.30;99.90;;;;;;5014529;28;20108;-90
2022/08/29 07:26:28;;;;;;;15.48;10.82;;;19.40;99.90;;;;;;4963472;28;20145;-89
2022/08/29 07:46:18;;;;;;;12.02;9.38;;;20.20;99.90;;;;;;4786290;29;20139;-89
2022/08/29 07:50:36;;;;;;;;;;;;;;;;;;;;;
2022/08/29 07:54:40;;;;;;;14.90;9.00;;;21.00;99.90;;;;;;4848332;29;20105;-92
2022/08/29 07:57:55;;;;;;;20.13;9.05;;;21.50;99.90;;;;;;4801793;29;20047;-89
2022/08/29 08:00:57;;;;;;;12.07;7.95;;;21.70;99.90;;;;;;4880661;29;20452;-89
2022/08/29 08:03:53;;;;;;;14.87;7.80;;;21.90;99.90;;;;;;4896982;29;20123;-88
2022/08/29 08:07:05;;;;;;;11.18;6.80;;;22.10;99.90;;;;;;4893735;29;20070;-91
2022/08/29 08:18:35;;;;;;;6.53;5.82;;;25.10;60.10;;;;;;4845652;29;20518;-90
2022/08/29 08:23:00;;;;;;;;;;;;;;;;;;;;;
2022/08/29 08:39:08;;;;;;;8.70;4.45;;;28.40;1.00;;;;;;4859429;29;20037;-93
2022/08/29 08:50:27;;;;;;;6.40;4.60;;;28.50;1.00;;;;;;4734987;30;20198;-88
2022/08/29 08:53:59;;;;;;;7.55;5.32;;;28.60;1.00;;;;;;4799345;29;20030;-89
2022/08/29 08:57:11;;;;;;;8.68;5.15;;;28.90;1.00;;;;;;4911654;29;20070;-91
2022/08/29 09:00:24;;;;;;;;;;;;;;;;;;;;;
2022/08/29 09:04:19;;;;;;;;;;;;;;;;;;;;;
2022/08/29 09:07:48;;;;;;;11.00;4.28;;;29.70;1.00;;;;;;4960154;28;20035;-92
2022/08/29 09:11:15;;;;;;;10.63;4.13;;;29.00;1.00;;;;;;4950597;28;20039;-90
2022/08/29 09:18:33;;;;;;;7.82;3.92;;;30.40;1.00;;;;;;4977910;28;20151;-92
2022/08/29 09:21:59;;;;;;;5.05;3.70;;;30.40;1.00;;;;;;4936179;29;20085;-92
2022/08/29 09:25:10;;;;;;;5.60;3.80;;;30.20;1.00;;;;;;4922030;29;20036;-90
2022/08/29 09:28:15;;;;;;;5.85;3.75;;;29.70;1.00;;;;;;4922963;29;20070;-91
2022/08/29 09:36:01;;;;;;;;;;;;;;;;;;;;;
2022/08/29 09:40:05;;;;;;;;;;;;;;;;;;;;;
2022/08/29 09:43:01;;;;;;;6.93;4.38;;;30.90;1.00;;;;;;4843676;29;20035;-92
2022/08/29 09:46:10;;;;;;;7.80;4.88;;;31.80;1.00;;;;;;4961623;28;20055;-89
2022/08/29 09:49:03;;;;;;;8.63;3.72;;;32.00;1.00;;;;;;4970271;28;20061;-88
2022/08/29 09:52:24;;;;;;;5.78;3.65;;;31.20;1.00;;;;;;4979244;28;20181;-91
2022/08/29 09:55:44;;;;;;;6.45;3.38;;;31.20;1.00;;;;;;4977975;28;20046;-90
2022/08/29 09:58:36;;;;;;;4.40;3.25;;;31.80;1.00;;;;;;4969016;28;20490;-87
2022/08/29 10:01:28;;;;;;;7.05;3.35;;;31.70;1.00;;;;;;5027912;28;20067;-87
2022/08/29 10:04:36;;;;;;;8.32;3.53;;;32.00;1.00;;;;;;5040875;28;20139;-87
2022/08/29 10:07:25;;;;;;;5.70;3.67;;;31.50;1.00;;;;;;5034145;28;20041;-86
2022/08/29 10:10:19;;;;;;;8.27;3.65;;;30.80;1.00;;;;;;5039319;28;20044;-87
2022/08/29 10:13:25;;;;;;;8.00;3.70;;;30.90;1.00;;;;;;5039565;28;20049;-90
2022/08/29 10:16:50;;;;;;;4.40;3.13;;;32.40;1.00;;;;;;5046646;28;20040;-90
2022/08/29 10:20:34;;;;;;;;;;;;;;;;;;;;;
2022/08/29 10:24:26;;;;;;;5.75;4.13;;;32.60;1.00;;;;;;4951324;28;20119;-91
2022/08/29 10:27:59;;;;;;;;;;;;;;;;;;;;;
2022/08/29 10:31:36;;;;;;;8.40;3.50;;;31.50;1.00;;;;;;4950088;28;20087;-91
2022/08/29 10:39:11;;;;;;;;;;;;;;;;;;;;;
2022/08/29 10:43:25;;;;;;;;;;;;;;;;;;;;;
2022/08/29 10:46:49;;;;;;;8.95;3.95;;;31.00;1.00;;;;;;4941924;28;20054;-92
2022/08/29 10:50:10;;;;;;;8.55;3.30;;;31.80;1.00;;;;;;4934642;28;20129;-88
2022/08/29 10:53:30;;;;;;;4.15;3.28;;;31.30;1.00;;;;;;4964763;28;20050;-88
2022/08/29 10:56:27;;;;;;;4.28;3.17;;;31.30;1.00;;;;;;4961415;28;20051;-87
2022/08/29 10:59:51;;;;;;;5.95;2.72;;;31.90;1.00;;;;;;4951395;28;20450;-86
2022/08/29 11:03:01;;;;;;;7.60;3.40;;;32.30;1.00;;;;;;5020612;28;20064;-87
2022/08/29 11:05:58;;;;;;;6.20;3.42;;;31.80;1.00;;;;;;5045347;28;20041;-87
2022/08/29 11:09:01;;;;;;;5.20;3.20;;;32.20;1.00;;;;;;5067267;28;20041;-88
2022/08/29 11:12:15;;;;;;;5.30;3.47;;;32.50;1.00;;;;;;5042094;28;20053;-87
2022/08/29 11:15:47;;;;;;;5.70;3.72;;;33.00;1.00;;;;;;5047015;28;20124;-86
2022/08/29 11:19:22;;;;;;;6.95;3.03;;;32.20;1.00;;;;;;5046864;28;20037;-87
2022/08/29 11:22:36;;;;;;;5.25;3.20;;;32.70;1.00;;;;;;5036146;28;20029;-87
2022/08/29 11:25:26;;;;;;;3.90;3.10;;;32.50;1.00;;;;;;5042413;28;20313;-87
2022/08/29 11:28:20;;;;;;;5.68;3.17;;;32.00;1.00;;;;;;5033571;28;20127;-86
2022/08/29 11:31:40;;;;;;;7.40;3.08;;;31.80;1.00;;;;;;5047133;28;20060;-89
2022/08/29 11:35:05;;;;;;;6.45;3.35;;;32.50;1.00;;;;;;5051155;28;20485;-88
2022/08/29 11:38:13;;;;;;;3.42;2.70;;;32.50;1.00;;;;;;5051020;28;20048;-91
2022/08/29 11:41:26;;;;;;;6.22;3.40;;;33.50;1.00;;;;;;5038334;28;20450;-90
2022/08/29 11:44:25;;;;;;;5.53;3.13;;;34.50;1.00;;;;;;5040030;28;20041;-90
2022/08/29 11:47:32;;;;;;;8.07;3.28;;;35.00;1.00;;;;;;5034568;28;20057;-92
2022/08/29 11:50:41;;;;;;;7.22;3.50;;;35.30;1.00;;;;;;5059335;28;20382;-91
2022/08/29 11:53:48;;;;;;;5.10;3.10;;;34.90;1.00;;;;;;5048625;28;20060;-93
2022/08/29 11:57:08;;;;;;;6.07;3.17;;;35.20;1.00;;;;;;5038801;28;20435;-90
2022/08/29 12:00:33;;;;;;;5.60;3.88;;;35.70;1.00;;;;;;5039821;28;20041;-94
2022/08/29 12:04:37;;;;;;;5.93;3.78;;;34.80;1.00;;;;;;4966467;28;20082;-92
2022/08/29 12:08:24;;;;;;;4.30;3.60;;;34.10;1.00;;;;;;4936743;29;20051;-89
2022/08/29 12:12:09;;;;;;;6.10;3.67;;;33.00;1.00;;;;;;4943688;29;20055;-86
2022/08/29 12:15:31;;;;;;;3.95;2.90;;;31.80;1.00;;;;;;4920154;29;20255;-92
2022/08/29 12:18:51;;;;;;;7.53;3.50;;;33.20;1.00;;;;;;4920371;29;20058;-93
2022/08/29 12:22:06;;;;;;;;;;;;;;;;;;;;;
2022/08/29 12:25:56;;;;;;;;;;;;;;;;;;;;;
2022/08/29 12:33:42;;;;;;;;;;;34.70;1.00;;;;;;4965005;28;20047;-92
2022/08/29 12:45:23;;;;;;;4.60;3.30;;;34.80;1.00;;;;;;4973022;28;20362;-90
2022/08/29 12:48:18;;;;;;;5.20;3.45;;;33.40;1.00;;;;;;4972148;28;20047;-90
2022/08/29 12:51:27;;;;;;;6.80;3.60;;;32.70;1.00;;;;;;4972677;28;20496;-91
2022/08/29 12:54:27;;;;;;;4.15;3.00;;;31.60;1.00;;;;;;5014971;28;20048;-92
2022/08/29 12:57:33;;;;;;;8.13;3.72;;;31.90;1.00;;;;;;5043752;28;20045;-89
2022/08/29 13:00:28;;;;;;;5.63;3.03;;;33.80;1.00;;;;;;5052743;28;20044;-92
2022/08/29 13:03:23;;;;;;;3.17;2.80;;;35.10;1.00;;;;;;5035577;28;20140;-88
2022/08/29 13:06:12;;;;;;;4.35;3.10;;;36.50;1.00;;;;;;5053996;28;20076;-87
2022/08/29 13:09:29;;;;;;;3.33;2.90;;;35.20;1.00;;;;;;5032624;28;20072;-93
2022/08/29 13:13:02;;;;;;;7.95;3.35;;;34.20;1.00;;;;;;5050778;28;20049;-91
2022/08/29 13:16:44;;;;;;;;;;;;;;;;;;;;;
2022/08/29 13:20:44;;;;;;;3.53;2.70;;;33.70;1.00;;;;;;5047676;28;20048;-92
2022/08/29 13:24:19;;;;;;;;;;;;;;;;;;;;;
2022/08/29 13:28:22;;;;;;;;;;;;;;;;;;;;;
2022/08/29 13:31:46;;;;;;;;;;;;;;;;;;;;;
2022/08/29 13:36:15;;;;;;;3.70;2.67;;;37.60;1.00;;;;;;4967934;28;20031;-90
2022/08/29 14:00:31;;;;;;;4.75;2.72;;;35.70;99.90;;;;;;4903902;29;20024;-87
2022/08/29 14:03:22;;;;;;;4.88;3.05;;;34.90;99.90;;;;;;4939611;28;20169;-87
2022/08/29 14:06:15;;;;;;;2.78;2.35;;;34.90;99.90;;;;;;4980462;28;20078;-87
2022/08/29 14:09:03;;;;;;;3.22;2.92;;;35.40;99.90;;;;;;4990497;28;20053;-85
2022/08/29 14:11:52;;;;;;;5.35;2.70;;;35.90;99.90;;;;;;5056838;28;20049;-84
2022/08/29 14:14:48;;;;;;;3.58;2.50;;;36.10;99.90;;;;;;5082014;28;20092;-83
2022/08/29 14:17:49;;;;;;;3.03;2.70;;;35.90;99.90;;;;;;5061452;28;20091;-86
2022/08/29 14:20:36;;;;;;;2.58;2.30;;;35.80;99.90;;;;;;5066407;28;20060;-86
2022/08/29 14:23:25;;;;;;;5.20;3.15;;;34.80;99.90;;;;;;5064243;28;20144;-88
2022/08/29 14:26:16;;;;;;;3.05;2.45;;;34.30;99.90;;;;;;5047652;28;20135;-85
2022/08/29 14:29:04;;;;;;;6.78;2.92;;;33.30;99.90;;;;;;5034053;28;20112;-88
2022/08/29 14:31:53;;;;;;;3.63;2.80;;;33.60;99.90;;;;;;5040826;28;20056;-89
2022/08/29 14:34:41;;;;;;;6.82;3.13;;;34.20;99.90;;;;;;5046482;28;20049;-92
2022/08/29 14:37:39;;;;;;;5.97;2.90;;;34.70;99.90;;;;;;5055489;28;20059;-90
2022/08/29 14:40:30;;;;;;;6.05;2.88;;;35.00;99.90;;;;;;5035961;28;20052;-91
2022/08/29 14:43:20;;;;;;;8.75;3.47;;;34.10;99.90;;;;;;5042804;28;20044;-89
2022/08/29 14:46:07;;;;;;;4.47;3.28;;;34.50;99.90;;;;;;5051044;28;20128;-87
2022/08/29 14:48:55;;;;;;;5.40;3.03;;;32.80;99.90;;;;;;5050861;28;20132;-90
2022/08/29 14:51:45;;;;;;;7.38;3.20;;;32.60;1.00;;;;;;5056940;28;20119;-87
2022/08/29 14:54:32;;;;;;;5.43;2.92;;;32.70;1.00;;;;;;5055499;28;20048;-86
2022/08/29 14:57:19;;;;;;;5.78;3.08;;;32.90;99.90;;;;;;5047535;28;20056;-87
2022/08/29 15:00:11;;;;;;;6.00;3.08;;;32.40;99.90;;;;;;5058176;28;20049;-85
2022/08/29 15:03:13;;;;;;;6.53;2.85;;;32.10;99.90;;;;;;5043185;28;20037;-88
2022/08/29 15:06:06;;;;;;;5.18;3.60;;;30.70;1.00;;;;;;5054120;28;20178;-88
2022/08/29 15:08:53;;;;;;;3.72;3.10;;;30.70;1.00;;;;;;5063881;28;20041;-89
2022/08/29 15:11:42;;;;;;;7.53;3.50;;;31.30;1.00;;;;;;5059897;28;20048;-85
2022/08/29 15:14:30;;;;;;;3.50;3.03;;;31.60;1.00;;;;;;5047447;28;20048;-88
2022/08/29 15:17:22;;;;;;;5.35;3.00;;;32.60;1.00;;;;;;5067234;28;20115;-89
2022/08/29 15:20:12;;;;;;;6.35;3.08;;;32.70;99.90;;;;;;5061150;28;20103;-89
2022/08/29 15:23:19;;;;;;;6.25;3.22;;;32.60;99.90;;;;;;5058207;28;20496;-89
2022/08/29 15:26:14;;;;;;;4.20;2.92;;;32.40;99.90;;;;;;5050888;28;20049;-86
2022/08/29 15:29:02;;;;;;;5.70;3.03;;;32.50;99.90;;;;;;5051658;28;20479;-88
2022/08/29 15:31:50;;;;;;;4.60;2.70;;;33.60;99.90;;;;;;5037563;28;20037;-85
2022/08/29 15:34:40;;;;;;;4.68;2.97;;;33.30;99.90;;;;;;5052606;28;20467;-86
2022/08/29 15:37:29;;;;;;;4.28;3.00;;;32.30;99.90;;;;;;5049655;28;20471;-87
2022/08/29 15:40:18;;;;;;;5.80;3.00;;;31.60;99.90;;;;;;5055314;28;20086;-86
2022/08/29 15:43:05;;;;;;;5.05;3.20;;;31.60;99.90;;;;;;5049899;28;20056;-86
2022/08/29 15:45:53;;;;;;;5.20;2.92;;;31.40;99.90;;;;;;5040887;28;20155;-86
2022/08/29 15:48:45;;;;;;;3.40;3.08;;;31.30;99.90;;;;;;5056462;28;20100;-86
2022/08/29 15:51:37;;;;;;;4.18;3.22;;;31.30;99.90;;;;;;5035174;28;20048;-87
2022/08/29 15:54:31;;;;;;;3.65;2.70;;;30.70;99.90;;;;;;5062051;28;20103;-90
2022/08/29 15:57:27;;;;;;;5.28;3.10;;;30.60;1.00;;;;;;5056649;28;20044;-86
2022/08/29 16:00:16;;;;;;;5.38;3.30;;;29.90;1.00;;;;;;5063851;28;20067;-85
2022/08/29 16:03:09;;;;;;;8.98;3.65;;;28.80;1.00;;;;;;5051273;28;20135;-88
2022/08/29 16:05:57;;;;;;;4.65;3.20;;;28.60;1.00;;;;;;5049087;28;20052;-88
2022/08/29 16:08:48;;;;;;;4.50;3.33;;;28.10;1.00;;;;;;5057951;28;20120;-87
2022/08/29 16:11:42;;;;;;;5.20;3.47;;;27.70;1.00;;;;;;5038243;28;20159;-89
2022/08/29 16:14:30;;;;;;;4.85;3.40;;;27.50;1.00;;;;;;5049432;28;20045;-88
2022/08/29 16:17:37;;;;;;;4.35;3.33;;;27.70;1.00;;;;;;5059832;28;20199;-88
2022/08/29 16:20:25;;;;;;;6.72;3.33;;;28.30;1.00;;;;;;5052014;28;20602;-87
2022/08/29 16:23:12;;;;;;;6.13;3.25;;;29.00;1.00;;;;;;5037857;28;20056;-90
2022/08/29 16:25:59;;;;;;;6.82;3.50;;;29.70;1.00;;;;;;5051319;28;20052;-88
2022/08/29 16:28:48;;;;;;;3.10;2.80;;;29.80;1.00;;;;;;5054728;28;20073;-91
2022/08/29 16:31:35;;;;;;;5.47;3.10;;;29.90;1.00;;;;;;5062287;28;20053;-89
2022/08/29 16:34:23;;;;;;;5.95;3.33;;;29.30;1.00;;;;;;5053558;28;20045;-88
2022/08/29 16:37:13;;;;;;;6.13;3.53;;;28.70;1.00;;;;;;5053828;28;20101;-89
2022/08/29 16:40:02;;;;;;;5.65;3.90;;;27.90;1.00;;;;;;5050470;28;20064;-89
2022/08/29 16:42:50;;;;;;;7.15;3.65;;;27.20;1.00;;;;;;5045092;28;20441;-88
2022/08/29 16:45:44;;;;;;;6.80;3.65;;;26.70;1.00;;;;;;5043974;28;20041;-86
2022/08/29 16:48:36;;;;;;;6.90;4.13;;;26.30;1.00;;;;;;5050569;28;20037;-88
2022/08/29 16:51:29;;;;;;;6.32;3.25;;;26.10;1.00;;;;;;5040277;28;20110;-88
2022/08/29 16:54:16;;;;;;;8.63;3.65;;;25.90;1.00;;;;;;5052196;28;20098;-88
2022/08/29 16:57:05;;;;;;;4.80;3.97;;;25.80;1.00;;;;;;5061013;28;20055;-87
2022/08/29 16:59:53;;;;;;;4.90;3.97;;;25.60;1.00;;;;;;5051794;28;20374;-87
2022/08/29 17:02:40;;;;;;;4.95;3.95;;;25.60;1.00;;;;;;5050180;28;20056;-89
2022/08/29 17:05:30;;;;;;;6.28;3.67;;;25.50;1.00;;;;;;5038648;28;20827;-90
2022/08/29 17:16:45;;;;;;;4.57;3.55;;;25.00;1.00;;;;;;5052428;28;20052;-89
2022/08/29 17:19:34;;;;;;;4.20;3.40;;;24.90;1.00;;;;;;5026583;28;20120;-89
2022/08/29 17:22:22;;;;;;;6.47;3.53;;;24.80;1.00;;;;;;5052194;28;20045;-91
2022/08/29 17:25:09;;;;;;;3.95;3.30;;;24.70;1.00;;;;;;5045753;28;20044;-88
2022/08/29 17:27:56;;;;;;;8.93;4.20;;;24.60;1.00;;;;;;5051955;28;20037;-88
2022/08/29 17:31:04;;;;;;;5.18;4.03;;;24.50;1.00;;;;;;5050828;28;20041;-89
2022/08/29 17:33:54;;;;;;;4.63;3.55;;;24.40;1.00;;;;;;5059813;28;20127;-87
2022/08/29 17:36:42;;;;;;;11.88;3.60;;;24.30;1.00;;;;;;5045761;28;20053;-89
2022/08/29 17:39:32;;;;;;;5.47;3.53;;;24.20;1.00;;;;;;5052236;28;20191;-89
2022/08/29 17:42:26;;;;;;;6.80;4.25;;;24.00;1.00;;;;;;5038316;28;20100;-87
2022/08/29 17:45:13;;;;;;;4.40;3.45;;;23.90;1.00;;;;;;5053954;28;20045;-89